createdAt,value
2023-03-01T00:01:22.356Z,99954.88
2023-03-01T00:03:49.616Z,99956.59
2023-03-01T00:06:16.998Z,99957.47
2023-03-01T00:08:43.920Z,99963.47
2023-03-01T00:11:13.907Z,99953.97
2023-03-01T00:13:42.057Z,99955.66
2023-03-01T00:16:14.029Z,99956.47
2023-03-01T00:18:41.444Z,99959.84
2023-03-01T00:21:08.764Z,99950.47
2023-03-01T00:23:36.320Z,99948.75
2023-03-01T00:26:07.417Z,99941.81
2023-03-01T00:28:35.450Z,99940.09
2023-03-01T00:31:10.599Z,99938.38
2023-03-01T00:33:37.523Z,99936.47
2023-03-01T00:36:05.091Z,99941.47
2023-03-01T00:38:35.224Z,99934.50
2023-03-01T00:41:10.265Z,99925.88
2023-03-01T00:43:40.179Z,99932.59
2023-03-01T00:46:15.195Z,99926.47
2023-03-01T00:48:42.631Z,99922.84
2023-03-01T00:51:13.232Z,99928.59
2023-03-01T00:53:40.451Z,99917.38
2023-03-01T00:56:09.719Z,99920.81
2023-03-01T00:58:36.961Z,99917.38
2023-03-01T01:01:20.861Z,99913.16
2023-03-01T01:03:50.891Z,99911.38
2023-03-01T01:06:23.863Z,99907.00
2023-03-01T01:08:51.541Z,99900.94
2023-03-01T01:11:19.262Z,99901.97
2023-03-01T01:13:48.159Z,99903.78
2023-03-01T01:16:16.549Z,99903.72
2023-03-01T01:18:44.184Z,99901.97
2023-03-01T01:21:14.865Z,99903.59
2023-03-01T01:23:43.392Z,99899.25
2023-03-01T01:26:11.601Z,99900.06
2023-03-01T01:28:38.912Z,99903.47
2023-03-01T01:31:06.426Z,99896.53
2023-03-01T01:33:34.090Z,99895.59
2023-03-01T01:36:01.465Z,99892.13
2023-03-01T01:38:28.449Z,99886.97
2023-03-01T01:40:55.784Z,99883.47
2023-03-01T01:43:26.878Z,99884.09
2023-03-01T01:45:58.211Z,99882.16
2023-03-01T01:48:41.298Z,99880.44
2023-03-01T01:51:18.163Z,99878.53
2023-03-01T01:53:47.917Z,99875.88
2023-03-01T01:56:18.029Z,99883.59
2023-03-01T01:58:45.963Z,99879.38
2023-03-01T02:01:13.157Z,99875.31
2023-03-01T02:03:43.433Z,99866.81
2023-03-01T02:06:30.183Z,99879.75
2023-03-01T02:09:03.539Z,99875.53
2023-03-01T02:11:33.314Z,99874.72
2023-03-01T02:14:00.494Z,99871.38
2023-03-01T02:16:28.149Z,99868.81
2023-03-01T02:18:55.289Z,99872.25
2023-03-01T02:21:25.295Z,99858.56
2023-03-01T02:23:52.306Z,99854.41
2023-03-01T02:26:46.635Z,99852.81
2023-03-01T02:29:13.747Z,99859.63
2023-03-01T02:31:43.779Z,99862.19
2023-03-01T02:34:17.950Z,99862.09
2023-03-01T02:36:56.092Z,99855.31
2023-03-01T02:39:27.784Z,99850.19
2023-03-01T02:41:57.211Z,99862.09
2023-03-01T02:44:24.435Z,99864.53
2023-03-01T02:46:55.376Z,99854.09
2023-03-01T02:49:26.171Z,99860.88
2023-03-01T02:52:09.702Z,99857.44
2023-03-01T02:54:45.594Z,99853.03
2023-03-01T02:57:13.215Z,99864.13
2023-03-01T02:59:41.297Z,99875.25
2023-03-01T03:02:21.667Z,99879.38
2023-03-01T03:04:48.744Z,99888.94
2023-03-01T03:07:15.881Z,99888.03
2023-03-01T03:09:42.783Z,99895.91
2023-03-01T03:12:10.007Z,99887.47
2023-03-01T03:14:36.890Z,99888.34
2023-03-01T03:17:07.666Z,99887.47
2023-03-01T03:19:34.618Z,99879.75
2023-03-01T03:22:02.850Z,99883.16
2023-03-01T03:24:29.799Z,99876.97
2023-03-01T03:26:56.986Z,99877.75
2023-03-01T03:29:23.828Z,99880.22
2023-03-01T03:31:51.121Z,99875.81
2023-03-01T03:34:19.122Z,99876.63
2023-03-01T03:36:46.452Z,99878.31
2023-03-01T03:39:13.362Z,99873.22
2023-03-01T03:41:40.516Z,99875.81
2023-03-01T03:44:07.394Z,99879.09
2023-03-01T03:46:34.997Z,99877.34
2023-03-01T03:49:01.997Z,99883.28
2023-03-01T03:51:29.137Z,99882.50
2023-03-01T03:53:56.047Z,99878.28
2023-03-01T03:56:28.654Z,99874.16
2023-03-01T03:58:55.952Z,99868.97
2023-03-01T04:01:23.375Z,99873.78
2023-03-01T04:03:55.476Z,99871.91
2023-03-01T04:06:22.924Z,99878.69
2023-03-01T04:08:52.115Z,99878.53
2023-03-01T04:11:28.219Z,99880.25
2023-03-01T04:13:58.021Z,99878.47
2023-03-01T04:16:26.119Z,99883.66
2023-03-01T04:18:57.712Z,99883.69
2023-03-01T04:21:24.892Z,99880.25
2023-03-01T04:23:53.706Z,99884.44
2023-03-01T04:26:21.589Z,99883.38
2023-03-01T04:28:50.463Z,99894.44
2023-03-01T04:31:22.108Z,99890.06
2023-03-01T04:33:54.577Z,99892.41
2023-03-01T04:36:27.804Z,99890.56
2023-03-01T04:38:55.592Z,99882.75
2023-03-01T04:41:25.144Z,99887.78
2023-03-01T04:43:52.298Z,99888.50
2023-03-01T04:46:21.046Z,99887.66
2023-03-01T04:48:48.482Z,99881.50
2023-03-01T04:51:16.806Z,99871.06
2023-03-01T04:53:44.769Z,99875.97
2023-03-01T04:56:12.563Z,99874.84
2023-03-01T04:58:39.433Z,99880.78
2023-03-01T05:01:16.518Z,99873.84
2023-03-01T05:03:45.177Z,99881.47
2023-03-01T05:06:12.958Z,99881.66
2023-03-01T05:08:40.791Z,99881.00
2023-03-01T05:11:10.117Z,99887.94
2023-03-01T05:13:39.102Z,99882.97
2023-03-01T05:16:08.168Z,99885.63
2023-03-01T05:18:36.008Z,99888.41
2023-03-01T05:21:09.556Z,99888.41
2023-03-01T05:23:37.313Z,99884.16
2023-03-01T05:26:09.411Z,99892.69
2023-03-01T05:28:38.996Z,99888.34
2023-03-01T05:31:10.747Z,99894.59
2023-03-01T05:33:39.199Z,99897.84
2023-03-01T05:36:08.345Z,99891.63
2023-03-01T05:38:35.267Z,99890.56
2023-03-01T05:41:02.836Z,99892.88
2023-03-01T05:43:35.350Z,99895.28
2023-03-01T05:46:02.813Z,99884.88
2023-03-01T05:48:30.189Z,99891.53
2023-03-01T05:51:01.442Z,99892.25
2023-03-01T05:53:28.642Z,99879.47
2023-03-01T05:55:55.771Z,99876.72
2023-03-01T05:58:22.833Z,99872.94
2023-03-01T06:00:50.351Z,99875.22
2023-03-01T06:03:18.721Z,99873.84
2023-03-01T06:05:46.178Z,99882.16
2023-03-01T06:08:14.134Z,99874.81
2023-03-01T06:10:41.898Z,99871.72
2023-03-01T06:13:09.013Z,99860.34
2023-03-01T06:15:36.400Z,99868.00
2023-03-01T06:18:03.441Z,99856.53
2023-03-01T06:20:30.740Z,99860.59
2023-03-01T06:22:58.254Z,99852.41
2023-03-01T06:25:27.843Z,99845.75
2023-03-01T06:27:54.953Z,99836.69
2023-03-01T06:30:24.034Z,99838.00
2023-03-01T06:32:51.014Z,99841.13
2023-03-01T06:35:19.687Z,99847.63
2023-03-01T06:37:48.224Z,99846.94
2023-03-01T06:40:17.134Z,99850.69
2023-03-01T06:42:48.296Z,99844.81
2023-03-01T06:45:16.165Z,99845.72
2023-03-01T06:47:43.204Z,99850.06
2023-03-01T06:50:11.577Z,99842.19
2023-03-01T06:52:38.766Z,99844.75
2023-03-01T06:55:06.859Z,99842.97
2023-03-01T06:57:33.842Z,99849.06
2023-03-01T07:00:01.208Z,99843.69
2023-03-01T07:02:28.246Z,99847.91
2023-03-01T07:04:55.494Z,99847.63
2023-03-01T07:07:22.465Z,99852.44
2023-03-01T07:09:50.025Z,99845.16
2023-03-01T07:12:17.388Z,99851.56
2023-03-01T07:14:45.232Z,99842.97
2023-03-01T07:17:12.082Z,99836.34
2023-03-01T07:19:39.323Z,99829.88
2023-03-01T07:22:08.850Z,99827.31
2023-03-01T07:24:36.366Z,99835.28
2023-03-01T07:27:03.516Z,99837.44
2023-03-01T07:29:31.346Z,99836.16
2023-03-01T07:31:58.281Z,99826.22
2023-03-01T07:34:25.711Z,99827.56
2023-03-01T07:36:53.435Z,99810.59
2023-03-01T07:39:20.801Z,99811.63
2023-03-01T07:41:47.751Z,99812.69
2023-03-01T07:44:14.967Z,99817.38
2023-03-01T07:46:42.096Z,99825.06
2023-03-01T07:49:09.373Z,99829.50
2023-03-01T07:51:36.336Z,99824.66
2023-03-01T07:54:03.666Z,99828.91
2023-03-01T07:56:30.954Z,99819.28
2023-03-01T07:59:00.970Z,99819.75
2023-03-01T08:01:28.108Z,99817.44
2023-03-01T08:03:55.350Z,99815.06
2023-03-01T08:06:22.476Z,99806.84
2023-03-01T08:08:49.713Z,99810.69
2023-03-01T08:11:17.057Z,99816.22
2023-03-01T08:13:44.830Z,99814.28
2023-03-01T08:16:15.520Z,99818.53
2023-03-01T08:18:44.198Z,99818.53
2023-03-01T08:21:17.276Z,99810.59
2023-03-01T08:23:44.906Z,99808.09
2023-03-01T08:26:15.065Z,99806.78
2023-03-01T08:28:43.124Z,99805.75
2023-03-01T08:31:29.712Z,99808.31
2023-03-01T08:34:00.596Z,99806.59
2023-03-01T08:36:34.071Z,99803.44
2023-03-01T08:39:01.463Z,99795.47
2023-03-01T08:41:28.606Z,99806.25
2023-03-01T08:43:59.818Z,99805.78
2023-03-01T08:46:32.923Z,99804.69
2023-03-01T08:49:00.668Z,99793.59
2023-03-01T08:51:28.052Z,99801.28
2023-03-01T08:53:55.294Z,99796.16
2023-03-01T08:56:22.189Z,99806.25
2023-03-01T08:58:50.202Z,99802.84
2023-03-01T09:01:19.812Z,99801.25
2023-03-01T09:03:47.533Z,99802.06
2023-03-01T09:06:15.533Z,99802.91
2023-03-01T09:08:45.495Z,99800.63
2023-03-01T09:11:16.442Z,99806.88
2023-03-01T09:13:44.578Z,99802.09
2023-03-01T09:16:14.192Z,99796.88
2023-03-01T09:18:44.822Z,99807.13
2023-03-01T09:21:17.388Z,99799.47
2023-03-01T09:23:46.854Z,99806.72
2023-03-01T09:26:22.372Z,99803.13
2023-03-01T09:28:52.802Z,99805.34
2023-03-01T09:31:24.678Z,99802.53
2023-03-01T09:33:56.949Z,99789.34
2023-03-01T09:36:31.612Z,99794.44
2023-03-01T09:39:00.244Z,99788.97
2023-03-01T09:41:47.771Z,99785.09
2023-03-01T09:44:37.174Z,99774.34
2023-03-01T09:47:04.820Z,99782.16
2023-03-01T09:49:40.078Z,99785.69
2023-03-01T09:52:39.379Z,99783.25
2023-03-01T09:55:17.340Z,99783.72
2023-03-01T09:57:52.288Z,99784.72
2023-03-01T10:00:48.428Z,99775.19
2023-03-01T10:04:12.347Z,99776.38
2023-03-01T10:06:51.872Z,99773.06
2023-03-01T10:09:19.857Z,99773.50
2023-03-01T10:11:51.992Z,99762.06
2023-03-01T10:14:33.792Z,99775.28
2023-03-01T10:17:26.970Z,99769.16
2023-03-01T10:19:53.922Z,99769.28
2023-03-01T10:22:30.396Z,99767.78
2023-03-01T10:25:04.222Z,99763.31
2023-03-01T10:27:48.723Z,99767.56
2023-03-01T10:30:36.511Z,99771.88
2023-03-01T10:33:20.600Z,99769.09
2023-03-01T10:35:49.524Z,99756.03
2023-03-01T10:38:20.341Z,99766.78
2023-03-01T10:40:53.493Z,99749.69
2023-03-01T10:43:21.750Z,99750.50
2023-03-01T10:45:49.303Z,99747.47
2023-03-01T10:48:28.656Z,99747.91
2023-03-01T10:50:58.620Z,99748.34
2023-03-01T10:53:30.680Z,99738.59
2023-03-01T10:56:01.545Z,99733.78
2023-03-01T10:58:29.899Z,99738.31
2023-03-01T11:01:05.947Z,99735.97
2023-03-01T11:03:38.895Z,99735.72
2023-03-01T11:06:12.142Z,99735.47
2023-03-01T11:08:48.273Z,99732.94
2023-03-01T11:11:36.026Z,99736.00
2023-03-01T11:14:26.414Z,99734.94
2023-03-01T11:17:04.515Z,99731.63
2023-03-01T11:19:32.335Z,99731.53
2023-03-01T11:22:05.407Z,99723.75
2023-03-01T11:24:42.273Z,99719.41
2023-03-01T11:27:32.885Z,99721.72
2023-03-01T11:30:00.006Z,99712.25
2023-03-01T11:32:34.225Z,99714.38
2023-03-01T11:35:11.428Z,99707.09
2023-03-01T11:37:45.487Z,99706.31
2023-03-01T11:40:18.269Z,99707.44
2023-03-01T11:42:51.116Z,99696.78
2023-03-01T11:45:18.390Z,99691.88
2023-03-01T11:47:57.981Z,99693.00
2023-03-01T11:50:39.679Z,99688.50
2023-03-01T11:53:27.928Z,99681.94
2023-03-01T11:56:26.399Z,99690.22
2023-03-01T11:59:30.634Z,99688.66
2023-03-01T12:02:06.601Z,99682.69
2023-03-01T12:05:11.171Z,99689.00
2023-03-01T12:08:05.763Z,99678.97
2023-03-01T12:11:01.262Z,99678.25
2023-03-01T12:13:34.397Z,99677.59
2023-03-01T12:16:13.082Z,99679.13
2023-03-01T12:19:02.874Z,99673.44
2023-03-01T12:21:43.477Z,99669.47
2023-03-01T12:24:30.034Z,99668.41
2023-03-01T12:27:34.682Z,99661.56
2023-03-01T12:30:23.766Z,99668.78
2023-03-01T12:33:15.585Z,99658.34
2023-03-01T12:36:15.586Z,99660.56
2023-03-01T12:38:44.265Z,99643.63
2023-03-01T12:41:20.308Z,99648.53
2023-03-01T12:44:02.320Z,99643.38
2023-03-01T12:47:00.521Z,99642.16
2023-03-01T12:49:37.330Z,99642.97
2023-03-01T12:52:30.395Z,99629.69
2023-03-01T12:55:02.210Z,99639.13
2023-03-01T12:57:41.574Z,99639.56
2023-03-01T13:00:36.750Z,99632.31
2023-03-01T13:03:22.940Z,99630.44
2023-03-01T13:05:55.697Z,99625.41
2023-03-01T13:08:34.135Z,99624.03
2023-03-01T13:11:04.749Z,99625.22
2023-03-01T13:13:32.715Z,99623.53
2023-03-01T13:16:22.524Z,99619.13
2023-03-01T13:18:49.806Z,99615.13
2023-03-01T13:21:31.496Z,99618.44
2023-03-01T13:23:58.671Z,99623.97
2023-03-01T13:26:25.628Z,99620.06
2023-03-01T13:28:58.307Z,99625.72
2023-03-01T13:31:48.490Z,99621.78
2023-03-01T13:34:53.023Z,99612.88
2023-03-01T13:37:27.000Z,99620.06
2023-03-01T13:39:54.285Z,99615.44
2023-03-01T13:42:38.493Z,99610.78
2023-03-01T13:45:19.977Z,99602.22
2023-03-01T13:47:50.355Z,99595.72
2023-03-01T13:50:22.163Z,99602.13
2023-03-01T13:53:06.115Z,99590.25
2023-03-01T13:55:44.001Z,99593.81
2023-03-01T13:58:31.789Z,99582.44
2023-03-01T14:01:08.270Z,99587.75
2023-03-01T14:03:42.842Z,99576.13
2023-03-01T14:06:19.101Z,99584.19
2023-03-01T14:08:50.584Z,99579.94
2023-03-01T14:11:39.357Z,99570.13
2023-03-01T14:14:21.833Z,99570.69
2023-03-01T14:17:14.160Z,99573.47
2023-03-01T14:19:45.930Z,99574.25
2023-03-01T14:22:26.173Z,99570.66
2023-03-01T14:24:56.857Z,99575.53
2023-03-01T14:27:45.801Z,99568.41
2023-03-01T14:30:20.313Z,99566.97
2023-03-01T14:33:07.425Z,99565.88
2023-03-01T14:35:36.447Z,99572.84
2023-03-01T14:38:03.794Z,99573.00
2023-03-01T14:40:37.113Z,99576.00
2023-03-01T14:43:12.631Z,99573.91
2023-03-01T14:45:39.692Z,99570.66
2023-03-01T14:48:08.599Z,99571.59
2023-03-01T14:50:37.371Z,99569.84
2023-03-01T14:53:08.880Z,99566.13
2023-03-01T14:55:39.791Z,99569.31
2023-03-01T14:58:12.604Z,99572.53
2023-03-01T15:00:44.689Z,99575.00
2023-03-01T15:03:26.894Z,99566.97
2023-03-01T15:05:54.727Z,99568.31
2023-03-01T15:08:25.695Z,99557.34
2023-03-01T15:11:02.963Z,99562.16
2023-03-01T15:13:35.044Z,99559.84
2023-03-01T15:16:10.735Z,99555.03
2023-03-01T15:18:38.944Z,99558.81
2023-03-01T15:21:30.669Z,99563.44
2023-03-01T15:24:20.463Z,99562.03
2023-03-01T15:26:54.820Z,99558.75
2023-03-01T15:29:31.039Z,99558.03
2023-03-01T15:32:06.068Z,99557.44
2023-03-01T15:34:38.495Z,99556.78
2023-03-01T15:37:28.414Z,99553.47
2023-03-01T15:39:58.149Z,99558.03
2023-03-01T15:42:28.028Z,99552.13
2023-03-01T15:45:18.042Z,99554.22
2023-03-01T15:47:51.142Z,99553.53
2023-03-01T15:50:38.586Z,99550.22
2023-03-01T15:53:09.170Z,99558.22
2023-03-01T15:55:36.639Z,99560.22
2023-03-01T15:58:21.504Z,99562.31
2023-03-01T16:01:00.906Z,99556.50
2023-03-01T16:03:28.561Z,99558.53
2023-03-01T16:05:55.801Z,99562.28
2023-03-01T16:08:22.737Z,99562.53
2023-03-01T16:10:52.254Z,99567.94
2023-03-01T16:13:20.306Z,99561.16
2023-03-01T16:15:48.203Z,99561.38
2023-03-01T16:18:15.143Z,99563.22
2023-03-01T16:20:42.302Z,99568.59
2023-03-01T16:23:11.366Z,99565.19
2023-03-01T16:25:39.008Z,99567.88
2023-03-01T16:28:10.164Z,99565.41
2023-03-01T16:30:40.557Z,99566.34
2023-03-01T16:33:26.828Z,99568.09
2023-03-01T16:35:56.473Z,99568.13
2023-03-01T16:38:23.594Z,99576.78
2023-03-01T16:40:52.565Z,99577.63
2023-03-01T16:43:19.520Z,99568.09
2023-03-01T16:45:47.627Z,99573.25
2023-03-01T16:48:15.177Z,99577.59
2023-03-01T16:50:42.548Z,99577.53
2023-03-01T16:53:09.617Z,99580.13
2023-03-01T16:55:36.963Z,99583.56
2023-03-01T16:58:05.410Z,99584.38
2023-03-01T17:00:32.719Z,99585.22
2023-03-01T17:02:59.726Z,99590.34
2023-03-01T17:05:27.234Z,99587.69
2023-03-01T17:07:56.704Z,99586.78
2023-03-01T17:10:24.200Z,99589.31
2023-03-01T17:12:51.672Z,99588.41
2023-03-01T17:15:18.971Z,99593.56
2023-03-01T17:17:45.915Z,99589.16
2023-03-01T17:20:13.780Z,99582.22
2023-03-01T17:22:40.659Z,99581.34
2023-03-01T17:25:12.297Z,99589.09
2023-03-01T17:27:40.001Z,99586.47
2023-03-01T17:30:11.425Z,99586.41
2023-03-01T17:32:38.632Z,99585.50
2023-03-01T17:35:06.521Z,99583.75
2023-03-01T17:37:33.653Z,99587.16
2023-03-01T17:40:00.808Z,99587.16
2023-03-01T17:42:27.753Z,99588.81
2023-03-01T17:44:54.952Z,99584.50
2023-03-01T17:47:21.853Z,99581.00
2023-03-01T17:49:49.020Z,99587.00
2023-03-01T17:52:16.052Z,99586.09
2023-03-01T17:54:43.273Z,99594.78
2023-03-01T17:57:10.178Z,99586.09
2023-03-01T17:59:37.680Z,99586.97
2023-03-01T18:02:04.586Z,99590.41
2023-03-01T18:04:32.587Z,99587.78
2023-03-01T18:07:00.032Z,99587.78
2023-03-01T18:09:28.386Z,99584.25
2023-03-01T18:11:55.341Z,99584.19
2023-03-01T18:14:22.757Z,99584.97
2023-03-01T18:16:50.962Z,99581.47
2023-03-01T18:19:18.289Z,99588.38
2023-03-01T18:21:45.413Z,99584.03
2023-03-01T18:24:12.597Z,99578.84
2023-03-01T18:26:40.361Z,99585.72
2023-03-01T18:29:08.373Z,99582.19
2023-03-01T18:31:35.570Z,99579.53
2023-03-01T18:34:02.998Z,99588.16
2023-03-01T18:36:33.240Z,99582.09
2023-03-01T18:39:03.508Z,99581.19
2023-03-01T18:41:30.860Z,99576.88
2023-03-01T18:43:58.585Z,99568.22
2023-03-01T18:46:26.024Z,99574.22
2023-03-01T18:48:54.507Z,99581.97
2023-03-01T18:51:25.496Z,99582.78
2023-03-01T18:53:52.956Z,99581.91
2023-03-01T18:56:19.837Z,99585.31
2023-03-01T18:58:47.287Z,99580.97
2023-03-01T19:01:20.080Z,99580.09
2023-03-01T19:03:47.893Z,99577.44
2023-03-01T19:06:15.272Z,99579.16
2023-03-01T19:08:44.437Z,99579.09
2023-03-01T19:11:13.258Z,99582.53
2023-03-01T19:13:41.005Z,99576.50
2023-03-01T19:16:16.405Z,99574.78
2023-03-01T19:18:50.256Z,99573.88
2023-03-01T19:21:19.934Z,99576.47
2023-03-01T19:23:48.870Z,99571.28
2023-03-01T19:26:18.518Z,99579.91
2023-03-01T19:28:46.558Z,99570.34
2023-03-01T19:31:16.750Z,99567.75
2023-03-01T19:33:44.333Z,99565.16
2023-03-01T19:36:14.671Z,99564.25
2023-03-01T19:38:43.141Z,99567.72
2023-03-01T19:41:16.923Z,99569.41
2023-03-01T19:43:45.679Z,99567.69
2023-03-01T19:46:15.055Z,99570.22
2023-03-01T19:48:44.587Z,99565.00
2023-03-01T19:51:12.522Z,99565.84
2023-03-01T19:53:40.765Z,99568.41
2023-03-01T19:56:08.940Z,99566.63
2023-03-01T19:58:36.649Z,99569.16
2023-03-01T20:01:03.680Z,99567.38
2023-03-01T20:03:33.857Z,99566.41
2023-03-01T20:06:02.689Z,99563.78
2023-03-01T20:08:32.072Z,99559.41
2023-03-01T20:11:04.483Z,99559.38
2023-03-01T20:13:31.715Z,99569.72
2023-03-01T20:15:58.806Z,99567.06
2023-03-01T20:18:26.809Z,99571.31
2023-03-01T20:20:54.101Z,99579.97
2023-03-01T20:23:22.213Z,99579.09
2023-03-01T20:25:49.242Z,99581.66
2023-03-01T20:28:17.975Z,99581.59
2023-03-01T20:30:45.801Z,99579.84
2023-03-01T20:33:13.159Z,99584.13
2023-03-01T20:35:43.943Z,99583.22
2023-03-01T20:38:11.177Z,99583.16
2023-03-01T20:40:38.402Z,99587.38
2023-03-01T20:43:05.612Z,99578.66
2023-03-01T20:45:32.518Z,99582.03
2023-03-01T20:47:59.749Z,99576.78
2023-03-01T20:50:26.715Z,99580.16
2023-03-01T20:52:53.984Z,99577.50
2023-03-01T20:55:21.044Z,99581.00
2023-03-01T20:57:48.238Z,99586.19
2023-03-01T21:00:15.454Z,99578.41
2023-03-01T21:02:44.041Z,99591.25
2023-03-01T21:05:11.032Z,99589.47
2023-03-01T21:07:38.371Z,99583.41
2023-03-01T21:10:05.637Z,99593.78
2023-03-01T21:12:32.910Z,99586.03
2023-03-01T21:14:59.847Z,99592.94
2023-03-01T21:17:26.996Z,99596.41
2023-03-01T21:19:53.909Z,99592.94
2023-03-01T21:22:21.070Z,99592.91
2023-03-01T21:24:50.191Z,99585.09
2023-03-01T21:27:18.863Z,99588.47
2023-03-01T21:29:47.144Z,99592.72
2023-03-01T21:32:14.921Z,99589.22
2023-03-01T21:34:42.203Z,99584.81
2023-03-01T21:37:10.790Z,99586.50
2023-03-01T21:39:38.030Z,99589.03
2023-03-01T21:42:06.010Z,99589.00
2023-03-01T21:44:33.800Z,99590.69
2023-03-01T21:47:01.398Z,99599.28
2023-03-01T21:49:28.415Z,99598.44
2023-03-01T21:51:56.082Z,99596.66
2023-03-01T21:54:22.998Z,99597.56
2023-03-01T21:56:51.106Z,99594.22
2023-03-01T21:59:20.958Z,99589.03
2023-03-01T22:01:49.654Z,99597.59
2023-03-01T22:04:17.130Z,99588.16
2023-03-01T22:06:46.835Z,99586.38
2023-03-01T22:09:19.262Z,99588.03
2023-03-01T22:11:54.015Z,99584.56
2023-03-01T22:14:21.906Z,99581.91
2023-03-01T22:16:51.756Z,99584.47
2023-03-01T22:19:18.999Z,99580.94
2023-03-01T22:21:49.886Z,99578.25
2023-03-01T22:24:19.231Z,99582.53
2023-03-01T22:26:48.400Z,99574.66
2023-03-01T22:29:25.313Z,99578.91
2023-03-01T22:31:53.822Z,99577.06
2023-03-01T22:34:21.203Z,99585.53
2023-03-01T22:36:48.946Z,99576.88
2023-03-01T22:39:19.132Z,99569.13
2023-03-01T22:41:47.759Z,99578.56
2023-03-01T22:44:18.260Z,99573.31
2023-03-01T22:46:45.570Z,99573.31
2023-03-01T22:49:12.716Z,99573.34
2023-03-01T22:51:42.459Z,99568.19
2023-03-01T22:54:11.095Z,99566.44
2023-03-01T22:56:39.217Z,99562.09
2023-03-01T22:59:11.455Z,99566.34
2023-03-01T23:01:40.190Z,99565.44
2023-03-01T23:04:07.532Z,99570.59
2023-03-01T23:06:50.219Z,99570.63
2023-03-01T23:09:30.973Z,99568.16
2023-03-01T23:11:59.973Z,99581.09
2023-03-01T23:14:31.247Z,99572.44
2023-03-01T23:17:00.733Z,99575.84
2023-03-01T23:19:28.768Z,99583.53
2023-03-01T23:21:57.296Z,99578.38
2023-03-01T23:24:31.881Z,99579.09
2023-03-01T23:27:03.047Z,99574.78
2023-03-01T23:29:31.314Z,99572.97
2023-03-01T23:31:59.879Z,99572.13
2023-03-01T23:34:27.493Z,99575.53
2023-03-01T23:36:55.755Z,99575.41
2023-03-01T23:39:22.781Z,99574.56
2023-03-01T23:41:50.200Z,99575.38
2023-03-01T23:44:19.536Z,99561.59
2023-03-01T23:46:47.961Z,99566.03
2023-03-01T23:49:18.787Z,99566.88
2023-03-01T23:51:49.703Z,99573.84
2023-03-01T23:54:22.028Z,99571.41
2023-03-01T23:56:49.360Z,99576.66
2023-03-01T23:59:19.253Z,99569.81
